sensor_id;sensor_type;location;lat;lon;timestamp;pressure;altitude;pressure_sealevel;temperature
66113;BMP280;52893;52.870;5.822;2023-02-19T00:01:12;101520.75;;;9.86
66113;BMP280;52893;52.870;5.822;2023-02-19T00:03:42;101520.44;;;9.87
66113;BMP280;52893;52.870;5.822;2023-02-19T00:06:10;101518.69;;;9.91
66113;BMP280;52893;52.870;5.822;2023-02-19T00:08:38;101521.94;;;9.93
66113;BMP280;52893;52.870;5.822;2023-02-19T00:11:07;101515.38;;;9.94
66113;BMP280;52893;52.870;5.822;2023-02-19T00:13:35;101517.00;;;9.95
66113;BMP280;52893;52.870;5.822;2023-02-19T00:16:05;101526.81;;;9.96
66113;BMP280;52893;52.870;5.822;2023-02-19T00:18:33;101529.03;;;9.94
66113;BMP280;52893;52.870;5.822;2023-02-19T00:21:01;101542.06;;;9.97
66113;BMP280;52893;52.870;5.822;2023-02-19T00:23:28;101545.91;;;9.96
66113;BMP280;52893;52.870;5.822;2023-02-19T00:25:55;101536.63;;;9.97
66113;BMP280;52893;52.870;5.822;2023-02-19T00:28:22;101542.53;;;9.99
66113;BMP280;52893;52.870;5.822;2023-02-19T00:30:50;101537.06;;;9.99
66113;BMP280;52893;52.870;5.822;2023-02-19T00:33:17;101538.25;;;9.98
66113;BMP280;52893;52.870;5.822;2023-02-19T00:35:45;101551.25;;;10.01
66113;BMP280;52893;52.870;5.822;2023-02-19T00:38:13;101546.44;;;9.98
66113;BMP280;52893;52.870;5.822;2023-02-19T00:40:40;101543.69;;;9.98
66113;BMP280;52893;52.870;5.822;2023-02-19T00:43:07;101542.53;;;9.99
66113;BMP280;52893;52.870;5.822;2023-02-19T00:45:35;101533.59;;;9.99
66113;BMP280;52893;52.870;5.822;2023-02-19T00:48:02;101537.06;;;9.99
66113;BMP280;52893;52.870;5.822;2023-02-19T00:50:29;101536.31;;;9.99
66113;BMP280;52893;52.870;5.822;2023-02-19T00:52:58;101539.34;;;9.97
66113;BMP280;52893;52.870;5.822;2023-02-19T00:55:25;101540.97;;;9.98
66113;BMP280;52893;52.870;5.822;2023-02-19T00:57:52;101538.25;;;9.98
66113;BMP280;52893;52.870;5.822;2023-02-19T01:00:20;101536.63;;;9.97
66113;BMP280;52893;52.870;5.822;2023-02-19T01:02:47;101533.91;;;9.97
66113;BMP280;52893;52.870;5.822;2023-02-19T01:05:14;101536.31;;;9.99
66113;BMP280;52893;52.870;5.822;2023-02-19T01:07:41;101519.13;;;9.85
66113;BMP280;52893;52.870;5.822;2023-02-19T01:10:10;101544.81;;;9.97
66113;BMP280;52893;52.870;5.822;2023-02-19T01:12:37;101547.81;;;9.96
66113;BMP280;52893;52.870;5.822;2023-02-19T01:15:05;101554.91;;;9.97
66113;BMP280;52893;52.870;5.822;2023-02-19T01:17:34;101548.63;;;9.96
66113;BMP280;52893;52.870;5.822;2023-02-19T01:20:02;101547.25;;;9.99
66113;BMP280;52893;52.870;5.822;2023-02-19T01:22:29;101551.06;;;9.98
66113;BMP280;52893;52.870;5.822;2023-02-19T01:24:56;101550.25;;;9.97
66113;BMP280;52893;52.870;5.822;2023-02-19T01:27:25;101547.00;;;9.95
66113;BMP280;52893;52.870;5.822;2023-02-19T01:29:52;101548.41;;;9.93
66113;BMP280;52893;52.870;5.822;2023-02-19T01:32:19;101548.69;;;9.91
66113;BMP280;52893;52.870;5.822;2023-02-19T01:34:46;101541.63;;;9.90
66113;BMP280;52893;52.870;5.822;2023-02-19T01:37:14;101540.34;;;9.88
66113;BMP280;52893;52.870;5.822;2023-02-19T01:39:41;101555.91;;;9.87
66113;BMP280;52893;52.870;5.822;2023-02-19T01:42:12;101554.28;;;9.86
66113;BMP280;52893;52.870;5.822;2023-02-19T01:47:53;101555.09;;;9.87
66113;BMP280;52893;52.870;5.822;2023-02-19T01:50:22;101559.72;;;9.86
66113;BMP280;52893;52.870;5.822;2023-02-19T01:52:49;101562.34;;;9.91
66113;BMP280;52893;52.870;5.822;2023-02-19T01:55:17;101552.53;;;9.90
66113;BMP280;52893;52.870;5.822;2023-02-19T01:57:45;101553.88;;;9.93
66113;BMP280;52893;52.870;5.822;2023-02-19T02:00:16;101546.63;;;9.88
66113;BMP280;52893;52.870;5.822;2023-02-19T02:02:47;101552.47;;;9.95
66113;BMP280;52893;52.870;5.822;2023-02-19T02:05:23;101556.28;;;9.94
66113;BMP280;52893;52.870;5.822;2023-02-19T02:07:51;101555.72;;;9.97
66113;BMP280;52893;52.870;5.822;2023-02-19T02:10:35;101554.66;;;9.93
66113;BMP280;52893;52.870;5.822;2023-02-19T02:13:03;101558.50;;;9.92
66113;BMP280;52893;52.870;5.822;2023-02-19T02:15:39;101557.53;;;9.88
66113;BMP280;52893;52.870;5.822;2023-02-19T02:18:15;101563.56;;;9.85
66113;BMP280;52893;52.870;5.822;2023-02-19T02:21:24;101560.13;;;9.79
66113;BMP280;52893;52.870;5.822;2023-02-19T02:24:05;101571.03;;;9.79
66113;BMP280;52893;52.870;5.822;2023-02-19T02:26:45;101567.00;;;9.77
66113;BMP280;52893;52.870;5.822;2023-02-19T02:29:35;101576.28;;;9.76
66113;BMP280;52893;52.870;5.822;2023-02-19T02:32:10;101579.50;;;9.78
66113;BMP280;52893;52.870;5.822;2023-02-19T02:34:40;101576.28;;;9.76
66113;BMP280;52893;52.870;5.822;2023-02-19T02:37:11;101588.28;;;9.75
66113;BMP280;52893;52.870;5.822;2023-02-19T02:39:40;101578.47;;;9.74
66113;BMP280;52893;52.870;5.822;2023-02-19T02:42:08;101583.44;;;9.72
66113;BMP280;52893;52.870;5.822;2023-02-19T02:45:22;101581.88;;;9.66
66113;BMP280;52893;52.870;5.822;2023-02-19T02:48:30;101599.88;;;9.67
66113;BMP280;52893;52.870;5.822;2023-02-19T02:51:03;101604.00;;;9.64
66113;BMP280;52893;52.870;5.822;2023-02-19T02:53:40;101600.44;;;9.64
66113;BMP280;52893;52.870;5.822;2023-02-19T02:56:29;101602.06;;;9.65
66113;BMP280;52893;52.870;5.822;2023-02-19T02:58:59;101611.06;;;9.65
66113;BMP280;52893;52.870;5.822;2023-02-19T03:01:31;101612.97;;;9.65
66113;BMP280;52893;52.870;5.822;2023-02-19T03:04:23;101605.31;;;9.67
66113;BMP280;52893;52.870;5.822;2023-02-19T03:06:51;101617.84;;;9.68
66113;BMP280;52893;52.870;5.822;2023-02-19T03:09:22;101619.47;;;9.69
66113;BMP280;52893;52.870;5.822;2023-02-19T03:11:57;101612.41;;;9.68
66113;BMP280;52893;52.870;5.822;2023-02-19T03:14:47;101620.59;;;9.68
66113;BMP280;52893;52.870;5.822;2023-02-19T03:17:35;101617.25;;;9.71
66113;BMP280;52893;52.870;5.822;2023-02-19T03:20:23;101627.38;;;9.70
66113;BMP280;52893;52.870;5.822;2023-02-19T03:22:53;101625.44;;;9.71
66113;BMP280;52893;52.870;5.822;2023-02-19T03:25:24;101624.31;;;9.72
66113;BMP280;52893;52.870;5.822;2023-02-19T03:28:15;101634.63;;;9.75
66113;BMP280;52893;52.870;5.822;2023-02-19T03:30:48;101641.19;;;9.74
66113;BMP280;52893;52.870;5.822;2023-02-19T03:33:18;101642.31;;;9.73
66113;BMP280;52893;52.870;5.822;2023-02-19T03:35:52;101648.53;;;9.73
66113;BMP280;52893;52.870;5.822;2023-02-19T03:38:27;101649.97;;;9.71
66113;BMP280;52893;52.870;5.822;2023-02-19T03:41:01;101657.03;;;9.72
66113;BMP280;52893;52.870;5.822;2023-02-19T03:43:34;101653.81;;;9.70
66113;BMP280;52893;52.870;5.822;2023-02-19T03:46:08;101645.94;;;9.68
66113;BMP280;52893;52.870;5.822;2023-02-19T03:48:40;101649.47;;;9.69
66113;BMP280;52893;52.870;5.822;2023-02-19T03:51:25;101647.84;;;9.68
66113;BMP280;52893;52.870;5.822;2023-02-19T03:54:00;101648.94;;;9.67
66113;BMP280;52893;52.870;5.822;2023-02-19T03:56:33;101664.78;;;9.65
66113;BMP280;52893;52.870;5.822;2023-02-19T03:59:04;101661.06;;;9.61
66113;BMP280;52893;52.870;5.822;2023-02-19T04:01:40;101675.78;;;9.60
66113;BMP280;52893;52.870;5.822;2023-02-19T04:04:14;101671.44;;;9.59
66113;BMP280;52893;52.870;5.822;2023-02-19T04:06:49;101684.25;;;9.58
66113;BMP280;52893;52.870;5.822;2023-02-19T04:09:19;101682.63;;;9.57
66113;BMP280;52893;52.870;5.822;2023-02-19T04:11:55;101685.34;;;9.57
66113;BMP280;52893;52.870;5.822;2023-02-19T04:14:25;101691.63;;;9.58
66113;BMP280;52893;52.870;5.822;2023-02-19T04:16:58;101696.25;;;9.57
66113;BMP280;52893;52.870;5.822;2023-02-19T04:19:27;101702.81;;;9.56
66113;BMP280;52893;52.870;5.822;2023-02-19T04:21:58;101710.50;;;9.54
66113;BMP280;52893;52.870;5.822;2023-02-19T04:24:28;101705.53;;;9.56
66113;BMP280;52893;52.870;5.822;2023-02-19T04:26:57;101712.31;;;9.59
66113;BMP280;52893;52.870;5.822;2023-02-19T04:29:25;101705.03;;;9.54
66113;BMP280;52893;52.870;5.822;2023-02-19T04:31:52;101725.97;;;9.59
66113;BMP280;52893;52.870;5.822;2023-02-19T04:34:19;101730.88;;;9.57
66113;BMP280;52893;52.870;5.822;2023-02-19T04:36:46;101730.88;;;9.57
66113;BMP280;52893;52.870;5.822;2023-02-19T04:39:15;101730.88;;;9.57
66113;BMP280;52893;52.870;5.822;2023-02-19T04:41:42;101734.69;;;9.56
66113;BMP280;52893;52.870;5.822;2023-02-19T04:44:09;101742.38;;;9.54
66113;BMP280;52893;52.870;5.822;2023-02-19T04:46:36;101754.91;;;9.55
66113;BMP280;52893;52.870;5.822;2023-02-19T04:49:04;101748.66;;;9.54
66113;BMP280;52893;52.870;5.822;2023-02-19T04:51:31;101753.28;;;9.54
66113;BMP280;52893;52.870;5.822;2023-02-19T04:53:58;101759.84;;;9.53
66113;BMP280;52893;52.870;5.822;2023-02-19T04:56:28;101764.47;;;9.52
66113;BMP280;52893;52.870;5.822;2023-02-19T04:58:55;101757.94;;;9.53
66113;BMP280;52893;52.870;5.822;2023-02-19T05:01:23;101766.41;;;9.52
66113;BMP280;52893;52.870;5.822;2023-02-19T05:03:50;101771.06;;;9.51
66113;BMP280;52893;52.870;5.822;2023-02-19T05:06:18;101774.88;;;9.50
66113;BMP280;52893;52.870;5.822;2023-02-19T05:08:45;101775.69;;;9.51
66113;BMP280;52893;52.870;5.822;2023-02-19T05:11:12;101779.50;;;9.50
66113;BMP280;52893;52.870;5.822;2023-02-19T05:13:41;101789.59;;;9.49
66113;BMP280;52893;52.870;5.822;2023-02-19T05:16:10;101797.50;;;9.51
66113;BMP280;52893;52.870;5.822;2023-02-19T05:18:39;101803.75;;;9.51
66113;BMP280;52893;52.870;5.822;2023-02-19T05:21:07;101810.59;;;9.49
66113;BMP280;52893;52.870;5.822;2023-02-19T05:23:35;101815.00;;;9.45
66113;BMP280;52893;52.870;5.822;2023-02-19T05:26:05;101824.88;;;9.41
66113;BMP280;52893;52.870;5.822;2023-02-19T05:28:33;101832.50;;;9.39
66113;BMP280;52893;52.870;5.822;2023-02-19T05:31:05;101832.00;;;9.37
66113;BMP280;52893;52.870;5.822;2023-02-19T05:33:33;101825.00;;;9.30
66113;BMP280;52893;52.870;5.822;2023-02-19T05:36:04;101832.63;;;9.28
66113;BMP280;52893;52.870;5.822;2023-02-19T05:38:32;101842.78;;;9.23
66113;BMP280;52893;52.870;5.822;2023-02-19T05:41:06;101844.22;;;9.15
66113;BMP280;52893;52.870;5.822;2023-02-19T05:43:34;101856.25;;;9.09
66113;BMP280;52893;52.870;5.822;2023-02-19T05:46:01;101865.63;;;9.03
66113;BMP280;52893;52.870;5.822;2023-02-19T05:48:29;101868.66;;;8.97
66113;BMP280;52893;52.870;5.822;2023-02-19T05:51:00;101875.50;;;8.94
66113;BMP280;52893;52.870;5.822;2023-02-19T05:53:27;101881.28;;;8.87
66113;BMP280;52893;52.870;5.822;2023-02-19T05:55:54;101878.31;;;8.84
66113;BMP280;52893;52.870;5.822;2023-02-19T05:58:22;101878.38;;;8.79
66113;BMP280;52893;52.870;5.822;2023-02-19T06:00:49;101874.31;;;8.76
66113;BMP280;52893;52.870;5.822;2023-02-19T06:03:16;101893.66;;;8.75
66113;BMP280;52893;52.870;5.822;2023-02-19T06:05:45;101904.00;;;8.73
66113;BMP280;52893;52.870;5.822;2023-02-19T06:08:13;101905.66;;;8.69
66113;BMP280;52893;52.870;5.822;2023-02-19T06:10:42;101907.06;;;8.61
66113;BMP280;52893;52.870;5.822;2023-02-19T06:13:10;101906.88;;;8.58
66113;BMP280;52893;52.870;5.822;2023-02-19T06:15:37;101888.34;;;8.55
66113;BMP280;52893;52.870;5.822;2023-02-19T06:18:04;101893.81;;;8.55
66113;BMP280;52893;52.870;5.822;2023-02-19T06:20:32;101900.59;;;8.52
66113;BMP280;52893;52.870;5.822;2023-02-19T06:23:00;101912.06;;;8.49
66113;BMP280;52893;52.870;5.822;2023-02-19T06:25:27;101917.81;;;8.42
66113;BMP280;52893;52.870;5.822;2023-02-19T06:27:55;101931.41;;;8.42
66113;BMP280;52893;52.870;5.822;2023-02-19T06:30:22;101939.03;;;8.45
66113;BMP280;52893;52.870;5.822;2023-02-19T06:32:50;101958.38;;;8.44
66113;BMP280;52893;52.870;5.822;2023-02-19T06:35:18;101967.59;;;8.43
66113;BMP280;52893;52.870;5.822;2023-02-19T06:37:45;101978.25;;;8.39
66113;BMP280;52893;52.870;5.822;2023-02-19T06:40:14;101983.44;;;8.36
66113;BMP280;52893;52.870;5.822;2023-02-19T06:42:41;101976.41;;;8.30
66113;BMP280;52893;52.870;5.822;2023-02-19T06:45:08;101981.84;;;8.30
66113;BMP280;52893;52.870;5.822;2023-02-19T06:47:36;101982.13;;;8.23
66113;BMP280;52893;52.870;5.822;2023-02-19T06:50:03;101985.38;;;8.20
66113;BMP280;52893;52.870;5.822;2023-02-19T06:52:31;102001.75;;;8.15
66113;BMP280;52893;52.870;5.822;2023-02-19T06:54:58;101997.44;;;8.09
66113;BMP280;52893;52.870;5.822;2023-02-19T06:57:26;102010.22;;;8.03
66113;BMP280;52893;52.870;5.822;2023-02-19T06:59:54;102015.09;;;8.01
66113;BMP280;52893;52.870;5.822;2023-02-19T07:02:21;102016.25;;;7.95
66113;BMP280;52893;52.870;5.822;2023-02-19T07:04:48;102028.75;;;7.91
66113;BMP280;52893;52.870;5.822;2023-02-19T07:07:15;102040.72;;;7.90
66113;BMP280;52893;52.870;5.822;2023-02-19T07:09:43;102049.97;;;7.89
66113;BMP280;52893;52.870;5.822;2023-02-19T07:12:10;102039.63;;;7.91
66113;BMP280;52893;52.870;5.822;2023-02-19T07:14:39;102035.28;;;7.90
66113;BMP280;52893;52.870;5.822;2023-02-19T07:17:06;102045.06;;;7.91
66113;BMP280;52893;52.870;5.822;2023-02-19T07:19:33;102044.53;;;7.89
66113;BMP280;52893;52.870;5.822;2023-02-19T07:22:01;102043.72;;;7.89
66113;BMP280;52893;52.870;5.822;2023-02-19T07:24:28;102039.66;;;7.86
66113;BMP280;52893;52.870;5.822;2023-02-19T07:26:55;102050.25;;;7.83
66113;BMP280;52893;52.870;5.822;2023-02-19T07:29:22;102045.91;;;7.82
66113;BMP280;52893;52.870;5.822;2023-02-19T07:31:51;102036.66;;;7.78
66113;BMP280;52893;52.870;5.822;2023-02-19T07:34:18;102044.81;;;7.78
66113;BMP280;52893;52.870;5.822;2023-02-19T07:36:45;102061.41;;;7.76
66113;BMP280;52893;52.870;5.822;2023-02-19T07:39:13;102051.38;;;7.72
66113;BMP280;52893;52.870;5.822;2023-02-19T07:41:40;102060.88;;;7.69
66113;BMP280;52893;52.870;5.822;2023-02-19T07:44:08;102063.31;;;7.71
66113;BMP280;52893;52.870;5.822;2023-02-19T07:46:38;102071.75;;;7.69
66113;BMP280;52893;52.870;5.822;2023-02-19T07:49:06;102072.81;;;7.68
66113;BMP280;52893;52.870;5.822;2023-02-19T07:51:34;102081.78;;;7.69
66113;BMP280;52893;52.870;5.822;2023-02-19T07:54:04;102099.47;;;7.71
66113;BMP280;52893;52.870;5.822;2023-02-19T07:56:32;102107.88;;;7.70
66113;BMP280;52893;52.870;5.822;2023-02-19T07:58:59;102114.41;;;7.74
66113;BMP280;52893;52.870;5.822;2023-02-19T08:01:27;102120.41;;;7.76
66113;BMP280;52893;52.870;5.822;2023-02-19T08:04:10;102112.50;;;7.74
66113;BMP280;52893;52.870;5.822;2023-02-19T08:06:39;102127.19;;;7.78
66113;BMP280;52893;52.870;5.822;2023-02-19T08:09:06;102134.25;;;7.79
66113;BMP280;52893;52.870;5.822;2023-02-19T08:11:34;102139.69;;;7.84
66113;BMP280;52893;52.870;5.822;2023-02-19T08:14:22;102159.53;;;7.90
66113;BMP280;52893;52.870;5.822;2023-02-19T08:16:50;102160.88;;;7.92
66113;BMP280;52893;52.870;5.822;2023-02-19T08:19:19;102168.78;;;7.99
66113;BMP280;52893;52.870;5.822;2023-02-19T08:21:47;102172.03;;;8.01
66113;BMP280;52893;52.870;5.822;2023-02-19T08:24:15;102181.56;;;8.03
66113;BMP280;52893;52.870;5.822;2023-02-19T08:26:42;102184.00;;;8.05
66113;BMP280;52893;52.870;5.822;2023-02-19T08:29:09;102189.97;;;8.02
66113;BMP280;52893;52.870;5.822;2023-02-19T08:31:37;102192.16;;;8.00
66113;BMP280;52893;52.870;5.822;2023-02-19T08:34:04;102199.25;;;8.01
66113;BMP280;52893;52.870;5.822;2023-02-19T08:36:32;102186.19;;;7.98
66113;BMP280;52893;52.870;5.822;2023-02-19T08:39:00;102200.88;;;7.97
66113;BMP280;52893;52.870;5.822;2023-02-19T08:41:27;102188.91;;;7.98
66113;BMP280;52893;52.870;5.822;2023-02-19T08:43:54;102194.06;;;7.99
66113;BMP280;52893;52.870;5.822;2023-02-19T08:46:21;102201.16;;;8.00
66113;BMP280;52893;52.870;5.822;2023-02-19T08:48:49;102195.41;;;8.02
66113;BMP280;52893;52.870;5.822;2023-02-19T08:51:16;102193.25;;;8.04
66113;BMP280;52893;52.870;5.822;2023-02-19T08:53:44;102198.16;;;8.07
66113;BMP280;52893;52.870;5.822;2023-02-19T08:56:14;102206.84;;;8.09
66113;BMP280;52893;52.870;5.822;2023-02-19T08:58:43;102219.38;;;8.10
66113;BMP280;52893;52.870;5.822;2023-02-19T09:01:12;102232.16;;;8.20
66113;BMP280;52893;52.870;5.822;2023-02-19T09:03:39;102241.09;;;8.30
66113;BMP280;52893;52.870;5.822;2023-02-19T09:06:10;102259.59;;;8.48
66113;BMP280;52893;52.870;5.822;2023-02-19T09:08:39;102262.03;;;8.60
66113;BMP280;52893;52.870;5.822;2023-02-19T09:11:07;102261.78;;;8.67
66113;BMP280;52893;52.870;5.822;2023-02-19T09:13:34;102269.63;;;8.73
66113;BMP280;52893;52.870;5.822;2023-02-19T09:16:02;102263.53;;;9.07
66113;BMP280;52893;52.870;5.822;2023-02-19T09:18:30;102275.75;;;9.19
66113;BMP280;52893;52.870;5.822;2023-02-19T09:20:59;102286.41;;;9.65
66113;BMP280;52893;52.870;5.822;2023-02-19T09:23:26;102282.81;;;10.13
66113;BMP280;52893;52.870;5.822;2023-02-19T09:25:57;102291.38;;;10.59
66113;BMP280;52893;52.870;5.822;2023-02-19T09:28:27;102273.19;;;10.97
66113;BMP280;52893;52.870;5.822;2023-02-19T09:30:54;102292.84;;;11.23
66113;BMP280;52893;52.870;5.822;2023-02-19T09:33:21;102312.31;;;11.59
66113;BMP280;52893;52.870;5.822;2023-02-19T09:35:48;102310.47;;;11.54
66113;BMP280;52893;52.870;5.822;2023-02-19T09:38:15;102301.28;;;11.27
66113;BMP280;52893;52.870;5.822;2023-02-19T09:40:42;102313.13;;;11.41
66113;BMP280;52893;52.870;5.822;2023-02-19T09:43:16;102322.66;;;11.99
66113;BMP280;52893;52.870;5.822;2023-02-19T09:45:46;102318.69;;;12.24
66113;BMP280;52893;52.870;5.822;2023-02-19T09:48:14;102319.22;;;12.07
66113;BMP280;52893;52.870;5.822;2023-02-19T09:50:43;102316.41;;;11.80
66113;BMP280;52893;52.870;5.822;2023-02-19T09:53:14;102315.13;;;11.91
66113;BMP280;52893;52.870;5.822;2023-02-19T09:55:43;102324.00;;;11.83
66113;BMP280;52893;52.870;5.822;2023-02-19T09:58:20;102328.00;;;11.72
66113;BMP280;52893;52.870;5.822;2023-02-19T10:00:51;102330.16;;;11.56
66113;BMP280;52893;52.870;5.822;2023-02-19T10:03:22;102346.47;;;11.43
66113;BMP280;52893;52.870;5.822;2023-02-19T10:05:56;102351.25;;;11.88
66113;BMP280;52893;52.870;5.822;2023-02-19T10:08:24;102357.56;;;12.40
66113;BMP280;52893;52.870;5.822;2023-02-19T10:10:51;102356.97;;;12.10
66113;BMP280;52893;52.870;5.822;2023-02-19T10:13:22;102378.53;;;12.31
66113;BMP280;52893;52.870;5.822;2023-02-19T10:15:52;102374.81;;;12.86
66113;BMP280;52893;52.870;5.822;2023-02-19T10:18:22;102385.34;;;12.79
66113;BMP280;52893;52.870;5.822;2023-02-19T10:20:51;102388.75;;;13.03
66113;BMP280;52893;52.870;5.822;2023-02-19T10:23:19;102379.47;;;13.54
66113;BMP280;52893;52.870;5.822;2023-02-19T10:25:49;102385.59;;;13.95
66113;BMP280;52893;52.870;5.822;2023-02-19T10:28:20;102383.50;;;14.15
66113;BMP280;52893;52.870;5.822;2023-02-19T10:30:53;102379.31;;;14.39
66113;BMP280;52893;52.870;5.822;2023-02-19T10:33:21;102393.06;;;14.70
66113;BMP280;52893;52.870;5.822;2023-02-19T10:35:54;102398.16;;;14.85
66113;BMP280;52893;52.870;5.822;2023-02-19T10:38:25;102395.28;;;15.08
66113;BMP280;52893;52.870;5.822;2023-02-19T10:41:01;102399.78;;;15.43
66113;BMP280;52893;52.870;5.822;2023-02-19T10:43:32;102401.03;;;15.28
66113;BMP280;52893;52.870;5.822;2023-02-19T10:46:04;102393.97;;;14.96
66113;BMP280;52893;52.870;5.822;2023-02-19T10:48:35;102394.34;;;15.12
66113;BMP280;52893;52.870;5.822;2023-02-19T10:51:05;102386.13;;;15.21
66113;BMP280;52893;52.870;5.822;2023-02-19T10:53:39;102397.31;;;15.33
66113;BMP280;52893;52.870;5.822;2023-02-19T10:56:09;102400.59;;;15.61
66113;BMP280;52893;52.870;5.822;2023-02-19T10:58:37;102402.69;;;15.64
66113;BMP280;52893;52.870;5.822;2023-02-19T11:01:15;102408.16;;;14.81
66113;BMP280;52893;52.870;5.822;2023-02-19T11:03:45;102406.66;;;14.00
66113;BMP280;52893;52.870;5.822;2023-02-19T11:06:14;102413.78;;;13.38
66113;BMP280;52893;52.870;5.822;2023-02-19T11:08:47;102417.25;;;12.89
66113;BMP280;52893;52.870;5.822;2023-02-19T11:11:27;102429.94;;;12.52
66113;BMP280;52893;52.870;5.822;2023-02-19T11:13:57;102422.41;;;12.26
66113;BMP280;52893;52.870;5.822;2023-02-19T11:16:37;102419.66;;;11.93
66113;BMP280;52893;52.870;5.822;2023-02-19T11:19:21;102425.34;;;11.54
66113;BMP280;52893;52.870;5.822;2023-02-19T11:21:49;102425.94;;;11.28
66113;BMP280;52893;52.870;5.822;2023-02-19T11:24:23;102429.97;;;11.06
66113;BMP280;52893;52.870;5.822;2023-02-19T11:26:51;102416.97;;;10.93
66113;BMP280;52893;52.870;5.822;2023-02-19T11:29:20;102420.34;;;10.85
66113;BMP280;52893;52.870;5.822;2023-02-19T11:31:50;102419.88;;;10.78
66113;BMP280;52893;52.870;5.822;2023-02-19T11:34:27;102425.41;;;10.73
66113;BMP280;52893;52.870;5.822;2023-02-19T11:37:11;102422.13;;;10.66
66113;BMP280;52893;52.870;5.822;2023-02-19T11:39:39;102430.41;;;10.61
66113;BMP280;52893;52.870;5.822;2023-02-19T11:42:24;102426.09;;;10.55
66113;BMP280;52893;52.870;5.822;2023-02-19T11:45:08;102424.47;;;10.54
66113;BMP280;52893;52.870;5.822;2023-02-19T11:47:49;102431.56;;;10.55
66113;BMP280;52893;52.870;5.822;2023-02-19T11:50:26;102425.78;;;10.56
66113;BMP280;52893;52.870;5.822;2023-02-19T11:53:05;102420.84;;;10.58
66113;BMP280;52893;52.870;5.822;2023-02-19T11:55:50;102408.00;;;10.59
66113;BMP280;52893;52.870;5.822;2023-02-19T11:58:38;102404.97;;;10.65
66113;BMP280;52893;52.870;5.822;2023-02-19T12:01:18;102413.72;;;10.62
66113;BMP280;52893;52.870;5.822;2023-02-19T12:04:07;102417.28;;;10.63
66113;BMP280;52893;52.870;5.822;2023-02-19T12:06:49;102420.22;;;10.66
66113;BMP280;52893;52.870;5.822;2023-02-19T12:09:32;102423.50;;;10.68
66113;BMP280;52893;52.870;5.822;2023-02-19T12:12:12;102422.41;;;10.69
66113;BMP280;52893;52.870;5.822;2023-02-19T12:14:55;102422.13;;;10.71
66113;BMP280;52893;52.870;5.822;2023-02-19T12:17:46;102435.72;;;10.76
66113;BMP280;52893;52.870;5.822;2023-02-19T12:20:25;102445.28;;;10.79
66113;BMP280;52893;52.870;5.822;2023-02-19T12:23:05;102450.53;;;10.70
66113;BMP280;52893;52.870;5.822;2023-02-19T12:25:47;102451.16;;;10.62
66113;BMP280;52893;52.870;5.822;2023-02-19T12:28:31;102449.63;;;10.46
66113;BMP280;52893;52.870;5.822;2023-02-19T12:31:13;102454.56;;;10.44
66113;BMP280;52893;52.870;5.822;2023-02-19T12:34:11;102451.06;;;10.33
66113;BMP280;52893;52.870;5.822;2023-02-19T12:36:49;102449.72;;;10.31
66113;BMP280;52893;52.870;5.822;2023-02-19T12:39:24;102438.88;;;10.20
66113;BMP280;52893;52.870;5.822;2023-02-19T12:42:00;102449.78;;;10.20
66113;BMP280;52893;52.870;5.822;2023-02-19T12:44:36;102457.94;;;10.25
66113;BMP280;52893;52.870;5.822;2023-02-19T12:47:06;102458.75;;;10.26
66113;BMP280;52893;52.870;5.822;2023-02-19T12:49:43;102454.94;;;10.27
66113;BMP280;52893;52.870;5.822;2023-02-19T12:52:17;102465.03;;;10.27
66113;BMP280;52893;52.870;5.822;2023-02-19T12:54:48;102472.44;;;10.21
66113;BMP280;52893;52.870;5.822;2023-02-19T12:57:20;102474.91;;;10.22
66113;BMP280;52893;52.870;5.822;2023-02-19T12:59:52;102490.19;;;10.23
66113;BMP280;52893;52.870;5.822;2023-02-19T13:02:24;102505.75;;;10.23
66113;BMP280;52893;52.870;5.822;2023-02-19T13:04:56;102513.94;;;10.23
66113;BMP280;52893;52.870;5.822;2023-02-19T13:07:31;102507.38;;;10.19
66113;BMP280;52893;52.870;5.822;2023-02-19T13:10:11;102510.91;;;10.19
66113;BMP280;52893;52.870;5.822;2023-02-19T13:12:42;102497.88;;;10.11
66113;BMP280;52893;52.870;5.822;2023-02-19T13:15:13;102501.94;;;10.09
66113;BMP280;52893;52.870;5.822;2023-02-19T13:17:44;102507.41;;;10.09
66113;BMP280;52893;52.870;5.822;2023-02-19T13:20:16;102482.63;;;10.00
66113;BMP280;52893;52.870;5.822;2023-02-19T13:22:49;102487.00;;;10.06
66113;BMP280;52893;52.870;5.822;2023-02-19T13:25:47;102485.91;;;10.07
66113;BMP280;52893;52.870;5.822;2023-02-19T13:28:30;102472.81;;;10.04
66113;BMP280;52893;52.870;5.822;2023-02-19T13:31:11;102494.63;;;10.04
66113;BMP280;52893;52.870;5.822;2023-02-19T13:33:47;102499.00;;;10.00
66113;BMP280;52893;52.870;5.822;2023-02-19T13:36:22;102508.84;;;9.96
66113;BMP280;52893;52.870;5.822;2023-02-19T13:38:53;102495.78;;;9.83
66113;BMP280;52893;52.870;5.822;2023-02-19T13:41:28;102511.63;;;9.86
66113;BMP280;52893;52.870;5.822;2023-02-19T13:43:58;102517.09;;;9.81
66113;BMP280;52893;52.870;5.822;2023-02-19T13:46:33;102499.66;;;9.77
66113;BMP280;52893;52.870;5.822;2023-02-19T13:55:46;102486.56;;;9.79
66113;BMP280;52893;52.870;5.822;2023-02-19T13:58:38;102472.88;;;9.84
66113;BMP280;52893;52.870;5.822;2023-02-19T14:01:19;102470.16;;;9.89
66113;BMP280;52893;52.870;5.822;2023-02-19T14:04:08;102464.72;;;9.89
66113;BMP280;52893;52.870;5.822;2023-02-19T14:07:19;102464.09;;;9.92
66113;BMP280;52893;52.870;5.822;2023-02-19T14:09:46;102461.94;;;9.94
66113;BMP280;52893;52.870;5.822;2023-02-19T14:12:20;102456.47;;;9.94
66113;BMP280;52893;52.870;5.822;2023-02-19T14:14:48;102451.00;;;9.94
66113;BMP280;52893;52.870;5.822;2023-02-19T14:17:26;102454.00;;;9.93
66113;BMP280;52893;52.870;5.822;2023-02-19T14:19:56;102445.56;;;9.94
66113;BMP280;52893;52.870;5.822;2023-02-19T14:22:59;102444.47;;;9.90
66113;BMP280;52893;52.870;5.822;2023-02-19T14:25:43;102448.88;;;9.86
66113;BMP280;52893;52.870;5.822;2023-02-19T14:28:23;102436.38;;;9.75
66113;BMP280;52893;52.870;5.822;2023-02-19T14:30:53;102445.66;;;9.79
66113;BMP280;52893;52.870;5.822;2023-02-19T14:33:23;102444.28;;;9.76
66113;BMP280;52893;52.870;5.822;2023-02-19T14:35:53;102431.47;;;9.72
66113;BMP280;52893;52.870;5.822;2023-02-19T14:38:24;102426.06;;;9.62
66113;BMP280;52893;52.870;5.822;2023-02-19T14:40:54;102433.66;;;9.65